Tampa, FL

09:48 AM EDT on Σεπτέμβριος 27, 2016 (GMT -0400)
MacDill Air Force Base | | Change Station

Elev 13 ft 27.85 °N, 82.52 °W | Updated 50 minutes ago

Clear
Αίθριος
81 ° F
Feels Like 91 ° F
N
5
Ανεμος Μεταβλητός Ανεμος from ΝΔ

Σήμερα
High -- | Low -- ° F
--% Chance of Precip.
Yesterday
High -- | Low -- ° F
Precip. -- in
Ατμοσφαιρική Πίεση 29.97 in
Ορατότητα 10.0 Μίλια
Σύννεφα Αίθριος
Δείκτης Δυσφορίας 91 ° F
Σημείο Δρόσου 81 ° F
Υγρασία 99%
Rainfall 0.00 in
Snow Depth Not available.
7:21 AM 7:20 PM
Μηνίσκος, 11% visible
METAR KMCF 271258Z AUTO 23004KT 10SM CLR 27/27 A2996 RMK AO2 SLP148 T02730272
Ατμοσφαιρική Πίεση 29.97 in
Ορατότητα 10.0 Μίλια
Σύννεφα Αίθριος
Δείκτης Δυσφορίας 91 ° F
Σημείο Δρόσου 81 ° F
Υγρασία 99%
Rainfall 0.00 in
Snow Depth Not available.
7:21 AM 7:20 PM
Μηνίσκος, 11% visible
METAR KMCF 271258Z AUTO 23004KT 10SM CLR 27/27 A2996 RMK AO2 SLP148 T02730272

10-Day Weather Forecast

Almanac

Αστρονομία

Sep. 27, 2016 Rise Set
Actual Time
Civil Twilight
Nautical Twilight
Astronomical Twilight
Moon
Length Of Visible Light
Διάρκεια ημέρας
Tomorrow will be .
, % of the Moon is Illuminated

Today's Extremes

State Highs State Lows

Community

WunderPhotos

Upload Photos

1,942,079 photos uploaded!

WunderBlog® & News

Nearby

Air Quality

  Air Quality AQ Index Pollutant
Not available.

Snow Depth

Station Depth Elevation

Earthquake Activity

City Distance Mag. Time & Date
Minimum magnitude displayed is 2.5.

Coastal Water Temperatures

Τοποθεσία Θερμοκρασία

Stations

Nearby Weather Stations

Station Location Temp Δείκτης Ψυχρότητας Σημείο Δρόσου Υγρασία Ανεμος Precip. Elev Ενημερώθηκε Type
                   

Watches & Warnings

There are currently no watches in effect.